Time;durP1;ratioP1;P1;durP2;ratioP2;P2;SDS_P1;SDS_P2;PMS_P1;PMS_P2;Temp;Humidity;BMP_temperature;BMP_pressure;BME280_temperature;BME280_humidity;BME280_pressure;Samples;Min_cycle;Max_cycle;Signal;HPM_P1;HPM_P2
2022/07/07 00:00:44;;;;;;;14.15;6.45;;;16.60;99.90;;;;;;5114587;28;20055;-74
2022/07/07 00:03:12;;;;;;;12.48;6.28;;;16.60;99.90;;;;;;5097198;28;20054;-73
2022/07/07 00:05:40;;;;;;;10.73;5.97;;;16.60;99.90;;;;;;5115177;28;20047;-74
2022/07/07 00:08:07;;;;;;;14.68;6.00;;;16.60;99.90;;;;;;5096824;27;20117;-74
2022/07/07 00:10:34;;;;;;;8.77;5.28;;;16.60;99.90;;;;;;5115074;28;20049;-74
2022/07/07 00:13:02;;;;;;;14.02;5.57;;;16.60;99.90;;;;;;5114884;28;20048;-73
2022/07/07 00:15:29;;;;;;;11.38;5.38;;;16.60;99.90;;;;;;5113925;28;20110;-73
2022/07/07 00:17:57;;;;;;;8.18;4.85;;;16.60;99.90;;;;;;5096461;28;20044;-74
2022/07/07 00:20:24;;;;;;;10.98;4.53;;;16.60;99.90;;;;;;5096306;28;20059;-75
2022/07/07 00:22:51;;;;;;;7.30;4.35;;;16.60;99.90;;;;;;5096893;28;20140;-74
2022/07/07 00:25:19;;;;;;;9.15;4.60;;;16.60;99.90;;;;;;5114736;28;20051;-74
2022/07/07 00:27:45;;;;;;;9.48;5.25;;;16.60;99.90;;;;;;5096395;28;20047;-74
2022/07/07 00:30:13;;;;;;;8.00;4.50;;;16.60;99.90;;;;;;5096174;28;20112;-73
2022/07/07 00:32:40;;;;;;;10.40;4.57;;;16.60;99.90;;;;;;5134598;27;20051;-74
2022/07/07 00:35:09;;;;;;;11.38;4.07;;;16.60;99.90;;;;;;5116421;27;20055;-74
2022/07/07 00:37:36;;;;;;;10.55;4.65;;;16.60;99.90;;;;;;5116845;27;20065;-73
2022/07/07 00:40:04;;;;;;;9.82;4.68;;;16.60;99.90;;;;;;5134684;27;20047;-73
2022/07/07 00:42:31;;;;;;;12.68;5.20;;;16.60;99.90;;;;;;5132913;27;20464;-73
2022/07/07 00:44:58;;;;;;;8.07;4.93;;;16.50;99.90;;;;;;5115983;27;20051;-73
2022/07/07 00:47:26;;;;;;;16.23;4.80;;;16.50;99.90;;;;;;5115616;27;20051;-73
2022/07/07 00:49:53;;;;;;;5.82;4.03;;;16.40;99.90;;;;;;5134273;27;20047;-74
2022/07/07 00:52:22;;;;;;;10.13;4.28;;;16.40;99.90;;;;;;5134466;27;20051;-74
2022/07/07 00:54:52;;;;;;;9.45;4.88;;;16.30;99.90;;;;;;5134308;27;20074;-74
2022/07/07 00:57:19;;;;;;;9.75;4.50;;;16.30;99.90;;;;;;5134291;27;20399;-74
2022/07/07 00:59:46;;;;;;;8.65;4.60;;;16.30;99.90;;;;;;5134559;27;20104;-73
2022/07/07 01:02:13;;;;;;;7.50;3.88;;;16.20;99.90;;;;;;5096551;28;20124;-73
2022/07/07 01:04:40;;;;;;;7.45;3.65;;;16.20;99.90;;;;;;5113610;28;20055;-74
2022/07/07 01:07:07;;;;;;;6.18;3.42;;;16.10;99.90;;;;;;5113680;28;20556;-73
2022/07/07 01:09:37;;;;;;;6.72;3.13;;;16.10;99.90;;;;;;5095299;28;20043;-74
2022/07/07 01:12:04;;;;;;;9.13;3.60;;;16.10;99.90;;;;;;5114015;28;20051;-73
2022/07/07 01:14:31;;;;;;;9.98;3.58;;;16.10;99.90;;;;;;5095702;28;20051;-74
2022/07/07 01:16:58;;;;;;;7.32;3.35;;;16.10;99.90;;;;;;5103936;27;20059;-73
2022/07/07 01:19:25;;;;;;;8.70;3.60;;;16.10;99.90;;;;;;5115985;27;20114;-75
2022/07/07 01:21:54;;;;;;;6.45;3.17;;;16.00;99.90;;;;;;5133680;27;20051;-75
2022/07/07 01:24:24;;;;;;;8.68;3.28;;;16.10;99.90;;;;;;5115574;27;20047;-75
2022/07/07 01:26:51;;;;;;;;;;;16.00;99.90;;;;;;5115692;27;20163;-75
2022/07/07 01:29:18;;;;;;;4.38;2.88;;;16.00;99.90;;;;;;5134012;27;19923;-75
2022/07/07 01:31:45;;;;;;;8.48;3.45;;;16.00;99.90;;;;;;5102793;28;20052;-75
2022/07/07 01:34:11;;;;;;;8.07;3.22;;;16.00;99.90;;;;;;5095588;28;20518;-75
2022/07/07 01:36:38;;;;;;;7.93;3.58;;;16.00;99.90;;;;;;5112961;28;20055;-74
2022/07/07 01:39:05;;;;;;;7.95;3.60;;;15.90;99.90;;;;;;5132359;27;20043;-75
2022/07/07 01:41:33;;;;;;;7.97;3.85;;;16.00;99.90;;;;;;5115462;27;20059;-74
2022/07/07 01:44:00;;;;;;;7.15;3.95;;;16.00;99.90;;;;;;5133820;27;20102;-74
2022/07/07 01:46:27;;;;;;;8.98;3.65;;;16.00;99.90;;;;;;5133014;27;20054;-73
2022/07/07 01:48:54;;;;;;;10.23;3.95;;;16.00;99.90;;;;;;5133685;27;20183;-72
2022/07/07 01:51:20;;;;;;;9.18;4.10;;;16.00;99.90;;;;;;5115276;28;20540;-73
2022/07/07 01:53:47;;;;;;;8.07;4.20;;;15.90;99.90;;;;;;5133362;27;20525;-73
2022/07/07 01:56:14;;;;;;;12.95;4.55;;;15.90;99.90;;;;;;5133484;27;20051;-74
2022/07/07 01:58:42;;;;;;;10.35;4.20;;;16.00;99.90;;;;;;5114894;28;20089;-74
2022/07/07 02:01:09;;;;;;;12.88;4.38;;;15.90;99.90;;;;;;5101171;28;20105;-74
2022/07/07 02:03:36;;;;;;;11.73;4.50;;;15.90;99.90;;;;;;5113024;28;20155;-74
2022/07/07 02:06:03;;;;;;;10.32;4.28;;;16.00;99.90;;;;;;5112332;28;20144;-73
2022/07/07 02:08:30;;;;;;;8.35;4.07;;;16.00;99.90;;;;;;5095030;28;20402;-74
2022/07/07 02:11:15;;;;;;;9.10;4.43;;;16.00;99.90;;;;;;5094854;28;20088;-75
2022/07/07 02:13:45;;;;;;;17.30;5.32;;;16.00;99.90;;;;;;5094619;28;20051;-74
2022/07/07 02:16:12;;;;;;;15.40;4.60;;;16.00;99.90;;;;;;5122103;28;20555;-73
2022/07/07 02:18:41;;;;;;;19.90;4.97;;;16.00;99.90;;;;;;5115063;28;20051;-74
2022/07/07 02:21:10;;;;;;;11.25;4.25;;;16.00;99.90;;;;;;5114321;28;20074;-74
2022/07/07 02:23:37;;;;;;;12.68;4.00;;;16.00;99.90;;;;;;5115465;28;20112;-74
2022/07/07 02:26:05;;;;;;;10.88;3.47;;;16.00;99.90;;;;;;5113198;28;20555;-75
2022/07/07 02:28:32;;;;;;;9.57;4.00;;;16.00;99.90;;;;;;5114842;28;20055;-74
2022/07/07 02:31:01;;;;;;;10.52;3.83;;;16.00;99.90;;;;;;5133420;28;20086;-75
2022/07/07 02:33:28;;;;;;;10.43;3.63;;;16.00;99.90;;;;;;5133296;28;20112;-74
2022/07/07 02:35:55;;;;;;;8.48;3.10;;;16.00;99.90;;;;;;5132829;28;20571;-74
2022/07/07 02:38:22;;;;;;;11.75;3.90;;;15.90;99.90;;;;;;5136293;27;20082;-74
2022/07/07 02:40:50;;;;;;;18.15;4.70;;;16.00;99.90;;;;;;5106351;28;20051;-74
2022/07/07 02:43:17;;;;;;;7.50;3.38;;;16.00;99.90;;;;;;5116643;28;20503;-73
2022/07/07 02:45:46;;;;;;;14.77;4.18;;;15.90;99.90;;;;;;5103045;27;20043;-75
2022/07/07 02:48:15;;;;;;;10.23;3.22;;;15.90;99.90;;;;;;5136669;27;20047;-74
2022/07/07 02:50:42;;;;;;;11.18;3.80;;;16.40;99.90;;;;;;5137348;27;20388;-74
2022/07/07 02:53:11;;;;;;;14.55;4.35;;;16.00;99.90;;;;;;5137210;27;20575;-74
2022/07/07 02:55:39;;;;;;;8.65;3.00;;;16.00;99.90;;;;;;5117611;27;20047;-75
2022/07/07 02:58:07;;;;;;;7.85;2.80;;;16.00;99.90;;;;;;5118485;27;20054;-75
2022/07/07 03:00:35;;;;;;;10.77;3.22;;;16.00;99.90;;;;;;5136620;27;20055;-74
2022/07/07 03:03:02;;;;;;;8.20;3.00;;;16.00;99.90;;;;;;5136619;27;20080;-75
2022/07/07 03:05:31;;;;;;;14.25;3.28;;;15.90;99.90;;;;;;5137187;27;20128;-75
2022/07/07 03:07:59;;;;;;;9.30;3.28;;;16.00;99.90;;;;;;5136568;27;20546;-75
2022/07/07 03:10:26;;;;;;;8.38;2.72;;;16.00;99.90;;;;;;5117487;27;20630;-74
2022/07/07 03:12:53;;;;;;;7.80;3.10;;;15.90;99.90;;;;;;5118431;27;20055;-75
2022/07/07 03:15:20;;;;;;;10.38;2.88;;;15.90;99.90;;;;;;5136829;27;20047;-76
2022/07/07 03:17:48;;;;;;;12.02;3.53;;;15.90;99.90;;;;;;5136062;27;20111;-76
2022/07/07 03:20:17;;;;;;;14.10;3.92;;;15.90;99.90;;;;;;5136249;27;20051;-75
2022/07/07 03:22:45;;;;;;;11.18;3.65;;;15.90;99.90;;;;;;5118603;27;20051;-76
2022/07/07 03:25:13;;;;;;;11.90;3.63;;;15.80;99.90;;;;;;5129119;27;20051;-75
2022/07/07 03:27:40;;;;;;;12.45;2.90;;;15.90;99.90;;;;;;5115649;28;20083;-74
2022/07/07 03:30:08;;;;;;;11.88;2.47;;;15.90;99.90;;;;;;5096886;28;20051;-75
2022/07/07 03:32:36;;;;;;;5.65;1.90;;;15.90;99.90;;;;;;5115370;28;20085;-76
2022/07/07 03:35:03;;;;;;;12.43;2.58;;;15.80;99.90;;;;;;5097278;28;20097;-76
2022/07/07 03:37:32;;;;;;;11.02;1.83;;;15.80;99.90;;;;;;5097036;28;20051;-75
2022/07/07 03:40:01;;;;;;;8.00;2.03;;;15.80;99.90;;;;;;5116037;28;20056;-75
2022/07/07 03:42:27;;;;;;;8.35;2.13;;;15.80;99.90;;;;;;5096701;28;20059;-74
2022/07/07 03:44:54;;;;;;;9.90;2.00;;;15.80;99.90;;;;;;5096825;28;20108;-75
2022/07/07 03:47:21;;;;;;;9.73;2.28;;;15.80;99.90;;;;;;5134669;27;20143;-73
2022/07/07 03:49:48;;;;;;;7.65;2.13;;;15.80;99.90;;;;;;5135168;27;20047;-73
2022/07/07 03:52:15;;;;;;;5.70;1.60;;;15.80;99.90;;;;;;5124546;27;20044;-74
2022/07/07 03:54:41;;;;;;;6.53;1.88;;;15.80;99.90;;;;;;5097389;27;20077;-75
2022/07/07 03:57:10;;;;;;;4.75;1.45;;;15.80;99.90;;;;;;5115070;28;20180;-74
2022/07/07 03:59:37;;;;;;;10.85;2.03;;;15.80;99.90;;;;;;5096492;28;20071;-74
2022/07/07 04:02:04;;;;;;;8.90;1.83;;;15.80;99.90;;;;;;5115028;28;20058;-73
2022/07/07 04:04:31;;;;;;;9.13;1.92;;;15.80;99.90;;;;;;5114853;28;20048;-74
2022/07/07 04:06:58;;;;;;;5.55;2.00;;;15.80;99.90;;;;;;5096674;28;20051;-73
2022/07/07 04:09:25;;;;;;;5.05;1.60;;;15.80;99.90;;;;;;5098753;27;20182;-74
2022/07/07 04:11:52;;;;;;;13.52;2.92;;;15.80;99.90;;;;;;5135559;27;20495;-73
2022/07/07 04:14:20;;;;;;;15.57;2.60;;;15.70;99.90;;;;;;5135118;27;20051;-73
2022/07/07 04:16:47;;;;;;;10.60;2.03;;;15.70;99.90;;;;;;5117122;27;20055;-73
2022/07/07 04:19:14;;;;;;;7.95;2.10;;;15.80;99.90;;;;;;5117100;27;20495;-74
2022/07/07 04:21:41;;;;;;;5.10;1.60;;;15.70;99.90;;;;;;5116774;27;20134;-74
2022/07/07 04:24:08;;;;;;;7.70;2.08;;;15.60;99.90;;;;;;5132816;27;20096;-74
2022/07/07 04:26:35;;;;;;;10.27;3.25;;;15.70;99.90;;;;;;5114318;28;20105;-74
2022/07/07 04:29:02;;;;;;;5.13;1.50;;;15.70;99.90;;;;;;5102910;27;20043;-75
2022/07/07 04:31:30;;;;;;;7.63;2.60;;;15.80;99.90;;;;;;5110903;28;20047;-75
2022/07/07 04:33:57;;;;;;;8.20;2.20;;;15.90;99.90;;;;;;5106589;27;20058;-75
2022/07/07 04:36:24;;;;;;;9.77;2.25;;;16.10;99.90;;;;;;5129707;27;20089;-75
2022/07/07 04:38:51;;;;;;;9.75;2.25;;;16.10;99.90;;;;;;5114589;27;20498;-75
2022/07/07 04:41:18;;;;;;;6.40;1.98;;;16.10;99.90;;;;;;5121829;27;20043;-75
2022/07/07 04:43:45;;;;;;;9.77;2.58;;;16.10;99.90;;;;;;5115257;27;20556;-75
2022/07/07 04:46:12;;;;;;;6.28;1.98;;;16.10;99.90;;;;;;5114698;27;20047;-74
2022/07/07 04:48:40;;;;;;;7.50;1.40;;;16.20;99.90;;;;;;5127182;27;20050;-75
2022/07/07 04:51:07;;;;;;;6.80;2.00;;;16.30;99.90;;;;;;5126611;27;20048;-75
2022/07/07 04:53:34;;;;;;;11.93;2.08;;;16.30;99.90;;;;;;5126225;27;20105;-75
2022/07/07 04:56:01;;;;;;;9.07;1.58;;;16.40;99.90;;;;;;5112356;27;20103;-75
2022/07/07 04:58:28;;;;;;;5.40;1.95;;;16.40;99.90;;;;;;5124870;27;20137;-75
2022/07/07 05:00:54;;;;;;;6.40;1.80;;;16.40;99.90;;;;;;5107506;27;20112;-75
2022/07/07 05:03:21;;;;;;;5.93;1.45;;;16.40;99.90;;;;;;5128330;27;20047;-75
2022/07/07 05:05:49;;;;;;;8.20;2.17;;;16.50;99.90;;;;;;5126506;27;20058;-75
2022/07/07 05:08:16;;;;;;;6.55;1.60;;;16.50;99.90;;;;;;5109934;27;20103;-73
2022/07/07 05:10:43;;;;;;;9.88;2.40;;;16.40;99.90;;;;;;5129937;27;20495;-74
2022/07/07 05:13:10;;;;;;;8.80;2.72;;;16.30;99.90;;;;;;5129411;27;20099;-75
2022/07/07 05:15:37;;;;;;;8.25;1.80;;;16.30;99.90;;;;;;5129439;27;20044;-73
2022/07/07 05:18:04;;;;;;;14.20;2.63;;;16.30;99.90;;;;;;5111875;27;20277;-74
2022/07/07 05:20:31;;;;;;;8.48;2.45;;;16.20;99.90;;;;;;5112190;27;20047;-73
2022/07/07 05:22:59;;;;;;;9.93;2.33;;;16.10;99.90;;;;;;5113523;27;20039;-75
2022/07/07 05:25:26;;;;;;;10.45;2.50;;;16.10;99.90;;;;;;5111806;27;20135;-74
2022/07/07 05:27:53;;;;;;;7.65;2.47;;;16.00;99.90;;;;;;5113081;27;20057;-72
2022/07/07 05:30:20;;;;;;;12.32;3.60;;;16.00;99.90;;;;;;5126107;27;20117;-72
2022/07/07 05:32:47;;;;;;;10.52;4.05;;;15.90;99.90;;;;;;5109872;27;20054;-74
2022/07/07 05:35:16;;;;;;;10.50;1.88;;;15.90;99.90;;;;;;5125689;27;20133;-75
2022/07/07 05:37:42;;;;;;;10.18;2.55;;;15.90;99.90;;;;;;5110635;27;20047;-73
2022/07/07 05:40:12;;;;;;;8.57;2.17;;;15.80;99.90;;;;;;5109773;28;20051;-73
2022/07/07 05:42:39;;;;;;;7.93;2.58;;;15.80;99.90;;;;;;5110948;27;20450;-72
2022/07/07 05:45:06;;;;;;;9.43;2.30;;;15.80;99.90;;;;;;5095953;27;20499;-73
2022/07/07 05:47:33;;;;;;;7.35;2.20;;;15.90;99.90;;;;;;5098854;27;20055;-71
2022/07/07 05:50:00;;;;;;;6.63;2.13;;;15.90;99.90;;;;;;5097698;27;20058;-71
2022/07/07 05:52:27;;;;;;;11.90;2.80;;;16.10;99.90;;;;;;5097516;27;20051;-71
2022/07/07 05:54:56;;;;;;;9.73;2.55;;;16.20;99.90;;;;;;5115893;27;20094;-73
2022/07/07 05:57:25;;;;;;;7.82;2.80;;;16.30;99.90;;;;;;5097839;27;20108;-72
2022/07/07 05:59:52;;;;;;;11.85;2.70;;;16.40;99.90;;;;;;5113149;28;20086;-72
2022/07/07 06:02:18;;;;;;;8.68;1.90;;;16.40;99.90;;;;;;5106861;28;20182;-72
2022/07/07 06:04:45;;;;;;;10.82;2.30;;;16.40;99.90;;;;;;5125217;28;20055;-72
2022/07/07 06:07:12;;;;;;;6.63;2.13;;;16.40;99.90;;;;;;5125100;28;20048;-71
2022/07/07 06:09:39;;;;;;;9.45;2.35;;;16.50;99.90;;;;;;5112427;28;20043;-72
2022/07/07 06:12:07;;;;;;;5.00;1.98;;;16.70;99.90;;;;;;5128577;27;20047;-71
2022/07/07 06:14:35;;;;;;;6.00;1.90;;;16.90;99.90;;;;;;5112345;28;20443;-73
2022/07/07 06:17:02;;;;;;;5.88;2.00;;;17.30;99.90;;;;;;5116469;27;20047;-74
2022/07/07 06:19:29;;;;;;;8.23;1.75;;;17.60;99.90;;;;;;5130076;27;20091;-73
2022/07/07 06:21:56;;;;;;;6.00;1.63;;;18.00;99.90;;;;;;5135363;27;20571;-73
2022/07/07 06:24:22;;;;;;;9.73;1.65;;;18.50;99.90;;;;;;5116944;27;20059;-73
2022/07/07 06:26:49;;;;;;;6.28;1.90;;;18.70;99.90;;;;;;5117480;27;20051;-72
2022/07/07 06:29:17;;;;;;;5.97;1.58;;;18.80;99.90;;;;;;5135902;27;20043;-72
2022/07/07 06:31:45;;;;;;;5.47;1.42;;;18.90;99.90;;;;;;5132731;27;20106;-74
2022/07/07 06:34:12;;;;;;;9.05;2.38;;;18.70;99.90;;;;;;5131142;27;20039;-73
2022/07/07 06:36:39;;;;;;;5.15;1.40;;;18.60;99.90;;;;;;5116996;27;20054;-74
2022/07/07 06:39:06;;;;;;;11.30;1.20;;;18.50;99.90;;;;;;5116312;27;20043;-73
2022/07/07 06:41:38;;;;;;;8.70;2.20;;;18.20;99.90;;;;;;5128855;27;20039;-72
2022/07/07 06:44:05;;;;;;;11.75;2.40;;;18.50;99.90;;;;;;5114678;27;20061;-73
2022/07/07 06:46:32;;;;;;;7.82;1.73;;;18.70;99.90;;;;;;5111419;27;20047;-73
2022/07/07 06:49:01;;;;;;;4.40;1.30;;;18.70;99.90;;;;;;5105923;27;20048;-74
2022/07/07 06:51:28;;;;;;;5.10;1.10;;;18.60;99.90;;;;;;5127378;27;20048;-74
2022/07/07 06:53:55;;;;;;;5.55;1.05;;;18.40;99.90;;;;;;5109885;27;21339;-74
2022/07/07 06:56:22;;;;;;;5.97;1.42;;;18.20;99.90;;;;;;5114527;27;20054;-74
2022/07/07 06:58:49;;;;;;;2.88;1.10;;;18.10;99.90;;;;;;5130637;27;20097;-74
2022/07/07 07:01:16;;;;;;;4.97;1.30;;;18.20;99.90;;;;;;5111685;27;20083;-74
2022/07/07 07:03:42;;;;;;;5.20;0.85;;;18.40;99.90;;;;;;5116161;27;20112;-74
2022/07/07 07:06:11;;;;;;;3.85;1.50;;;19.10;99.90;;;;;;5127612;27;20039;-73
2022/07/07 07:09:06;;;;;;;4.05;1.02;;;19.30;99.90;;;;;;5128262;27;20047;-73
2022/07/07 07:11:32;;;;;;;6.63;1.10;;;19.20;99.90;;;;;;5127747;27;20043;-73
2022/07/07 07:14:02;;;;;;;7.50;1.55;;;19.30;99.90;;;;;;5132602;27;20092;-73
2022/07/07 07:16:29;;;;;;;6.17;1.80;;;19.40;99.90;;;;;;5115560;27;20054;-74
2022/07/07 07:18:56;;;;;;;3.53;1.02;;;20.00;99.90;;;;;;5124730;27;20116;-74
2022/07/07 07:21:25;;;;;;;4.40;1.35;;;20.40;99.90;;;;;;5113128;27;20107;-74
2022/07/07 07:23:52;;;;;;;5.50;1.60;;;21.10;99.90;;;;;;5115362;27;20245;-74
2022/07/07 07:26:33;;;;;;;5.20;1.10;;;21.40;99.90;;;;;;5128366;27;20043;-74
2022/07/07 07:29:00;;;;;;;5.57;1.02;;;21.70;99.90;;;;;;5130939;27;20051;-73
2022/07/07 07:31:27;;;;;;;4.18;1.05;;;22.00;99.90;;;;;;5113582;27;20039;-73
2022/07/07 07:33:53;;;;;;;5.45;1.48;;;22.30;99.90;;;;;;5116309;27;20055;-73
2022/07/07 07:36:21;;;;;;;3.45;1.55;;;22.60;99.90;;;;;;5130365;27;20043;-74
2022/07/07 07:38:50;;;;;;;5.72;1.65;;;22.50;99.90;;;;;;5114864;27;20571;-73
2022/07/07 07:41:18;;;;;;;5.50;1.37;;;21.90;99.90;;;;;;5114080;27;20482;-76
2022/07/07 07:43:45;;;;;;;4.88;1.00;;;21.40;99.90;;;;;;5115721;27;20297;-74
2022/07/07 07:46:12;;;;;;;3.08;0.88;;;21.00;99.90;;;;;;5124487;27;20514;-73
2022/07/07 07:48:39;;;;;;;3.80;1.00;;;20.70;99.90;;;;;;5109813;27;20520;-74
2022/07/07 07:51:06;;;;;;;8.38;1.10;;;20.60;99.90;;;;;;5111470;27;20046;-73
2022/07/07 07:53:33;;;;;;;7.13;1.13;;;20.40;99.90;;;;;;5129532;27;20051;-74
2022/07/07 07:56:01;;;;;;;4.75;1.30;;;20.30;99.90;;;;;;5111794;27;20051;-74
2022/07/07 07:58:28;;;;;;;4.55;1.27;;;20.20;99.90;;;;;;5130837;27;20108;-74
2022/07/07 08:00:55;;;;;;;4.70;1.65;;;20.40;99.90;;;;;;5113797;27;20047;-74
2022/07/07 08:03:22;;;;;;;6.70;1.17;;;20.60;99.90;;;;;;5132576;27;20044;-74
2022/07/07 08:05:49;;;;;;;11.32;1.63;;;20.50;99.90;;;;;;5111822;27;20108;-73
2022/07/07 08:08:16;;;;;;;5.07;1.15;;;20.50;99.90;;;;;;5128702;27;20054;-74
2022/07/07 08:10:43;;;;;;;4.00;1.20;;;20.80;99.90;;;;;;5126980;27;20487;-74
2022/07/07 08:13:11;;;;;;;3.67;1.27;;;21.70;99.90;;;;;;5114878;27;20054;-73
2022/07/07 08:15:38;;;;;;;6.47;1.95;;;21.70;99.90;;;;;;5114235;27;20108;-74
2022/07/07 08:18:05;;;;;;;3.10;1.20;;;21.40;99.90;;;;;;5115019;27;20084;-73
2022/07/07 08:20:32;;;;;;;5.00;1.23;;;20.90;99.90;;;;;;5126713;27;20047;-74
2022/07/07 08:22:59;;;;;;;4.47;1.33;;;20.60;99.90;;;;;;5130850;27;20099;-74
2022/07/07 08:25:26;;;;;;;4.07;1.30;;;20.50;99.90;;;;;;5111526;27;20472;-74
2022/07/07 08:27:52;;;;;;;6.78;1.60;;;20.80;99.90;;;;;;5132914;27;20066;-74
2022/07/07 08:30:21;;;;;;;6.80;1.73;;;21.10;99.90;;;;;;5132816;27;20130;-74
2022/07/07 08:32:48;;;;;;;5.50;1.50;;;21.20;99.90;;;;;;5125552;27;20058;-74
2022/07/07 08:35:16;;;;;;;7.30;1.77;;;21.00;99.90;;;;;;5133046;27;20402;-74
2022/07/07 08:37:43;;;;;;;7.78;1.70;;;20.80;99.90;;;;;;5130955;27;20038;-74
2022/07/07 08:40:10;;;;;;;9.30;2.08;;;20.80;99.90;;;;;;5109122;27;20039;-74
2022/07/07 08:42:38;;;;;;;5.72;1.45;;;20.80;99.90;;;;;;5125455;27;20501;-74
2022/07/07 08:45:06;;;;;;;4.20;1.50;;;20.90;99.90;;;;;;5109833;27;20575;-74
2022/07/07 08:47:34;;;;;;;6.82;1.73;;;20.80;99.90;;;;;;5113891;27;20055;-74
2022/07/07 08:50:01;;;;;;;7.45;1.60;;;20.60;99.90;;;;;;5087785;27;20123;-73
2022/07/07 08:52:29;;;;;;;10.35;2.20;;;20.30;99.90;;;;;;5080109;27;20441;-75
2022/07/07 08:54:56;;;;;;;5.18;1.70;;;20.30;99.90;;;;;;5109829;27;20076;-73
2022/07/07 08:57:24;;;;;;;5.82;1.75;;;20.20;99.90;;;;;;5128532;27;20100;-74
2022/07/07 08:59:56;;;;;;;5.63;1.60;;;20.60;99.90;;;;;;5129392;27;20086;-74
2022/07/07 09:02:23;;;;;;;4.53;1.50;;;20.80;99.90;;;;;;5126048;27;20043;-74
2022/07/07 09:04:52;;;;;;;5.15;0.98;;;20.60;99.90;;;;;;5112667;27;20129;-74
2022/07/07 09:07:20;;;;;;;3.58;0.98;;;20.40;99.90;;;;;;5109281;27;20051;-73
2022/07/07 09:09:49;;;;;;;2.10;0.80;;;20.50;99.90;;;;;;5113159;27;20051;-74
2022/07/07 09:12:18;;;;;;;3.90;1.10;;;21.00;99.90;;;;;;5127119;27;20053;-74
2022/07/07 09:14:47;;;;;;;8.65;1.67;;;21.40;99.90;;;;;;5128597;27;20055;-74
2022/07/07 09:17:19;;;;;;;6.40;1.33;;;22.00;99.90;;;;;;5128583;27;20062;-74
2022/07/07 09:19:59;;;;;;;5.05;1.38;;;22.30;99.90;;;;;;5128883;27;20098;-74
2022/07/07 09:22:42;;;;;;;5.25;1.30;;;22.30;99.90;;;;;;5125364;27;20046;-75
2022/07/07 09:25:09;;;;;;;5.47;1.20;;;22.60;99.90;;;;;;5108954;27;20142;-74
2022/07/07 09:27:50;;;;;;;5.57;1.35;;;22.70;99.90;;;;;;5109873;28;20053;-75
2022/07/07 09:30:26;;;;;;;7.65;1.63;;;22.70;99.90;;;;;;5125946;27;20040;-75
2022/07/07 09:32:53;;;;;;;6.32;1.33;;;22.80;99.90;;;;;;5106388;27;20047;-75
2022/07/07 09:38:16;;;;;;;3.22;1.10;;;22.00;99.90;;;;;;5131503;27;20046;-74
2022/07/07 09:40:55;;;;;;;3.70;0.85;;;21.50;99.90;;;;;;5130616;27;20039;-74
2022/07/07 09:43:22;;;;;;;5.68;1.58;;;21.40;99.90;;;;;;5124804;27;20054;-75
2022/07/07 09:46:05;;;;;;;3.60;1.73;;;21.40;99.90;;;;;;5128487;27;20123;-75
2022/07/07 09:48:32;;;;;;;2.70;1.05;;;21.30;99.90;;;;;;5124039;27;20043;-74
2022/07/07 09:51:13;;;;;;;2.72;0.80;;;20.90;99.90;;;;;;5108173;28;20044;-75
2022/07/07 09:54:00;;;;;;;1.90;0.80;;;20.50;99.90;;;;;;5125375;27;20039;-75
2022/07/07 09:56:28;;;;;;;4.50;1.52;;;20.50;99.90;;;;;;5126796;28;20103;-74
2022/07/07 09:58:56;;;;;;;5.03;1.00;;;20.50;99.90;;;;;;5126080;27;20043;-74
2022/07/07 10:01:26;;;;;;;2.83;0.90;;;21.00;99.90;;;;;;5127423;28;20096;-73
2022/07/07 10:03:56;;;;;;;7.18;1.17;;;21.50;99.90;;;;;;5111995;28;20047;-74
2022/07/07 10:06:25;;;;;;;;;;;21.40;99.90;;;;;;5128115;28;20107;-73
2022/07/07 10:08:56;;;;;;;10.27;1.45;;;21.30;99.90;;;;;;5125455;28;20371;-75
2022/07/07 10:11:26;;;;;;;5.47;1.30;;;21.30;99.90;;;;;;5108522;28;20059;-74
2022/07/07 10:13:55;;;;;;;;;;;21.50;99.90;;;;;;5114926;28;20380;-74
2022/07/07 10:16:22;;;;;;;5.07;1.30;;;21.80;99.90;;;;;;5112277;28;20028;-75
2022/07/07 10:18:49;;;;;;;5.43;1.50;;;21.80;99.90;;;;;;5121409;28;20467;-74
2022/07/07 10:21:17;;;;;;;7.47;1.70;;;21.50;99.90;;;;;;5126723;28;20617;-74
2022/07/07 10:23:47;;;;;;;5.80;1.27;;;21.20;99.90;;;;;;5106710;28;20051;-75
2022/07/07 10:26:14;;;;;;;11.55;2.40;;;20.90;99.90;;;;;;5109184;28;20051;-75
2022/07/07 10:28:56;;;;;;;10.35;1.73;;;20.70;99.90;;;;;;5125835;28;20047;-72
2022/07/07 10:31:24;;;;;;;4.90;1.58;;;20.50;99.90;;;;;;5124444;28;20122;-74
2022/07/07 10:33:54;;;;;;;9.95;2.15;;;20.30;99.90;;;;;;5112349;28;20094;-73
2022/07/07 10:36:22;;;;;;;5.68;1.55;;;20.20;99.90;;;;;;5113284;28;20047;-72
2022/07/07 10:38:53;;;;;;;12.68;2.20;;;20.00;99.90;;;;;;5127456;28;20099;-72
2022/07/07 10:41:25;;;;;;;11.23;1.90;;;19.80;99.90;;;;;;5131182;28;20444;-74
2022/07/07 10:44:03;;;;;;;8.48;2.38;;;20.00;99.90;;;;;;5105935;28;20059;-73
2022/07/07 10:46:29;;;;;;;8.85;2.08;;;20.00;99.90;;;;;;5100937;27;20399;-74
2022/07/07 10:49:09;;;;;;;7.53;2.22;;;19.90;99.90;;;;;;5069364;27;20531;-75
2022/07/07 10:51:53;;;;;;;9.80;2.43;;;20.00;99.90;;;;;;5093025;28;20135;-74
2022/07/07 10:54:36;;;;;;;11.30;2.80;;;20.10;99.90;;;;;;5104996;28;20058;-74
2022/07/07 10:57:14;;;;;;;11.57;2.50;;;20.30;99.90;;;;;;5104314;28;20043;-74
2022/07/07 11:00:14;;;;;;;8.55;2.65;;;20.40;99.90;;;;;;5130344;27;20043;-73
2022/07/07 11:02:44;;;;;;;10.63;2.60;;;20.70;99.90;;;;;;5112953;27;20046;-74
2022/07/07 11:05:33;;;;;;;8.23;2.30;;;20.60;99.90;;;;;;5108600;27;20047;-74
2022/07/07 11:08:16;;;;;;;9.98;2.50;;;20.40;99.90;;;;;;5109966;27;20047;-73
2022/07/07 11:10:51;;;;;;;9.38;2.28;;;20.20;99.90;;;;;;5129117;27;20122;-75
2022/07/07 11:13:21;;;;;;;19.40;3.13;;;20.00;99.90;;;;;;5113296;27;20043;-73
2022/07/07 11:15:49;;;;;;;9.98;2.70;;;19.90;99.90;;;;;;5128628;27;20426;-75
2022/07/07 11:18:18;;;;;;;12.70;2.63;;;19.70;99.90;;;;;;5129416;27;20124;-75
2022/07/07 11:21:00;;;;;;;7.57;2.55;;;19.80;99.90;;;;;;5108552;27;20071;-75
2022/07/07 11:23:37;;;;;;;8.45;2.15;;;19.90;99.90;;;;;;5115103;27;20130;-74
2022/07/07 11:26:06;;;;;;;11.52;2.42;;;19.90;99.90;;;;;;5114924;27;20050;-75
2022/07/07 11:28:33;;;;;;;5.55;1.80;;;20.10;99.90;;;;;;5115546;27;20101;-74
2022/07/07 11:31:06;;;;;;;8.95;1.88;;;20.30;99.90;;;;;;5132091;27;20043;-75
2022/07/07 11:33:32;;;;;;;9.07;2.00;;;20.40;99.90;;;;;;5133053;27;20099;-75
2022/07/07 11:35:59;;;;;;;5.43;1.88;;;20.50;99.90;;;;;;5114449;27;20042;-75
2022/07/07 11:38:30;;;;;;;8.52;1.85;;;20.70;99.90;;;;;;5129108;27;20047;-74
2022/07/07 11:40:57;;;;;;;9.00;2.15;;;21.30;99.90;;;;;;5113252;27;20096;-74
2022/07/07 11:43:26;;;;;;;7.18;1.88;;;21.70;99.90;;;;;;5107001;27;20104;-75
2022/07/07 11:45:54;;;;;;;8.93;1.95;;;21.70;99.90;;;;;;5109365;27;20074;-75
2022/07/07 11:48:22;;;;;;;4.63;1.83;;;21.90;99.30;;;;;;5128735;27;20074;-74
2022/07/07 11:50:49;;;;;;;7.30;1.67;;;22.50;99.30;;;;;;5111762;27;20411;-74
2022/07/07 11:53:17;;;;;;;13.60;2.17;;;22.90;98.70;;;;;;5126232;27;20078;-75
2022/07/07 11:55:44;;;;;;;8.57;2.15;;;23.10;97.40;;;;;;5127884;27;20471;-75
2022/07/07 11:58:11;;;;;;;8.52;1.77;;;23.20;96.70;;;;;;5122516;27;20101;-74
2022/07/07 12:00:41;;;;;;;7.07;1.73;;;23.50;96.40;;;;;;5129365;27;20043;-74
2022/07/07 12:03:08;;;;;;;7.45;2.33;;;23.50;95.80;;;;;;5111206;27;20416;-74
2022/07/07 12:05:37;;;;;;;8.95;3.30;;;23.40;95.70;;;;;;5126249;27;20151;-74
2022/07/07 12:08:05;;;;;;;8.98;2.50;;;23.50;95.90;;;;;;5110115;27;20138;-74
2022/07/07 12:10:34;;;;;;;11.20;2.65;;;23.30;96.20;;;;;;5131505;27;20046;-74
2022/07/07 12:13:02;;;;;;;10.40;2.40;;;23.00;96.40;;;;;;5109698;27;20456;-74
2022/07/07 12:15:32;;;;;;;10.90;3.17;;;22.90;96.60;;;;;;5128605;27;20047;-75
2022/07/07 12:18:00;;;;;;;8.47;2.10;;;22.80;96.80;;;;;;5110260;27;20044;-75
2022/07/07 12:20:27;;;;;;;9.55;2.17;;;22.70;96.90;;;;;;5115139;27;20103;-75
2022/07/07 12:22:55;;;;;;;5.75;1.80;;;22.60;96.70;;;;;;5129014;27;20048;-74
2022/07/07 12:25:25;;;;;;;10.35;3.00;;;22.60;96.60;;;;;;5111222;27;20112;-74
2022/07/07 12:27:56;;;;;;;11.20;3.08;;;22.60;96.30;;;;;;5112552;27;20546;-74
2022/07/07 12:30:26;;;;;;;7.10;2.00;;;22.90;95.50;;;;;;5125559;27;20088;-74
2022/07/07 12:32:52;;;;;;;5.20;1.67;;;22.90;94.70;;;;;;5114363;27;20051;-75
2022/07/07 12:35:32;;;;;;;5.85;1.63;;;23.20;94.10;;;;;;5127821;27;20043;-74
2022/07/07 12:38:01;;;;;;;8.75;1.75;;;23.30;92.50;;;;;;5129588;27;20047;-75
2022/07/07 12:40:29;;;;;;;5.38;1.70;;;23.20;93.50;;;;;;5129044;27;20058;-75
2022/07/07 12:42:56;;;;;;;10.52;1.98;;;23.10;93.40;;;;;;5105960;27;20159;-75
2022/07/07 12:45:24;;;;;;;9.15;2.25;;;22.90;93.40;;;;;;5128033;27;20039;-74
2022/07/07 12:47:53;;;;;;;8.75;2.17;;;22.60;93.70;;;;;;5109494;27;20131;-75
2022/07/07 12:50:23;;;;;;;9.40;2.13;;;22.40;94.10;;;;;;5108526;27;20506;-74
2022/07/07 12:53:02;;;;;;;7.45;2.10;;;22.10;94.50;;;;;;5120504;27;20086;-75
2022/07/07 12:55:34;;;;;;;8.23;2.50;;;21.70;95.30;;;;;;5096028;28;20051;-74